Time;durP1;ratioP1;P1;durP2;ratioP2;P2;SDS_P1;SDS_P2;PMS_P1;PMS_P2;Temp;Humidity;BMP_temperature;BMP_pressure;BME280_temperature;BME280_humidity;BME280_pressure;Samples;Min_cycle;Max_cycle;Signal;HPM_P1;HPM_P2
2022/06/08 00:00:56;;;;;;;5.50;1.95;;;19.20;99.90;;;;;;5059128;28;20123;-79
2022/06/08 00:03:36;;;;;;;4.70;2.10;;;19.20;99.90;;;;;;5044560;28;20047;-78
2022/06/08 00:06:12;;;;;;;6.68;2.17;;;19.30;99.90;;;;;;5058027;28;20056;-78
2022/06/08 00:09:07;;;;;;;5.60;2.63;;;19.10;99.90;;;;;;5061083;28;20525;-78
2022/06/08 00:11:33;;;;;;;8.98;2.30;;;19.30;99.90;;;;;;5065203;28;20037;-78
2022/06/08 00:14:29;;;;;;;5.88;1.92;;;18.90;99.90;;;;;;5048722;28;21047;-78
2022/06/08 00:17:00;;;;;;;7.20;1.80;;;19.10;99.90;;;;;;5061901;28;20048;-78
2022/06/08 00:19:39;;;;;;;4.97;1.75;;;19.10;99.90;;;;;;5061541;28;20087;-78
2022/06/08 00:22:22;;;;;;;6.72;1.80;;;19.10;99.90;;;;;;5058913;28;20041;-78
2022/06/08 00:25:17;;;;;;;8.52;2.10;;;19.10;99.90;;;;;;5061330;28;20477;-79
2022/06/08 00:27:52;;;;;;;6.32;2.88;;;19.10;99.90;;;;;;5076438;28;20048;-79
2022/06/08 00:30:25;;;;;;;9.65;1.98;;;19.00;99.90;;;;;;5059172;28;20044;-78
2022/06/08 00:33:02;;;;;;;8.80;2.38;;;19.00;99.90;;;;;;5060204;28;20098;-78
2022/06/08 00:35:31;;;;;;;7.93;1.90;;;19.00;99.90;;;;;;5059451;28;20037;-79
2022/06/08 00:38:16;;;;;;;4.65;1.88;;;19.10;99.90;;;;;;5044118;28;21285;-78
2022/06/08 00:41:13;;;;;;;8.00;2.60;;;18.90;99.90;;;;;;5058735;28;20076;-78
2022/06/08 00:44:30;;;;;;;8.05;2.70;;;18.90;99.90;;;;;;5058905;28;20312;-78
2022/06/08 00:47:01;;;;;;;13.88;2.45;;;18.70;99.90;;;;;;5043443;28;20045;-78
2022/06/08 00:49:42;;;;;;;5.82;2.15;;;18.80;99.90;;;;;;5061002;28;20064;-78
2022/06/08 00:52:12;;;;;;;7.20;3.10;;;18.50;99.90;;;;;;5058395;28;21308;-78
2022/06/08 00:54:52;;;;;;;5.93;2.22;;;18.80;99.90;;;;;;5075883;28;20633;-78
2022/06/08 00:57:45;;;;;;;4.78;1.98;;;18.70;99.90;;;;;;5043560;28;20083;-78
2022/06/08 01:00:17;;;;;;;7.70;2.42;;;18.70;99.90;;;;;;5061185;28;20045;-78
2022/06/08 01:02:46;;;;;;;4.25;1.75;;;18.70;99.90;;;;;;5071187;28;20535;-78
2022/06/08 01:05:42;;;;;;;5.25;2.13;;;18.70;99.90;;;;;;5043888;28;20075;-78
2022/06/08 01:08:42;;;;;;;5.25;2.25;;;18.70;99.90;;;;;;5075633;28;20037;-78
2022/06/08 01:11:51;;;;;;;7.95;1.90;;;18.70;99.90;;;;;;5057356;28;20068;-78
2022/06/08 01:14:30;;;;;;;10.35;2.60;;;18.70;99.90;;;;;;5057622;28;20576;-78
2022/06/08 01:17:30;;;;;;;7.38;2.22;;;18.70;99.90;;;;;;5057684;28;20049;-78
2022/06/08 01:20:13;;;;;;;6.93;3.65;;;18.60;99.90;;;;;;5074570;28;20734;-78
2022/06/08 01:22:54;;;;;;;9.68;3.08;;;18.30;99.90;;;;;;5060417;28;20641;-78
2022/06/08 01:25:30;;;;;;;6.72;2.33;;;18.70;99.90;;;;;;5057525;28;20051;-79
2022/06/08 01:28:37;;;;;;;;;;;;;;;;;;;;;
2022/06/08 01:31:38;;;;;;;5.95;2.35;;;18.70;99.90;;;;;;5060303;28;39931;-79
2022/06/08 01:34:35;;;;;;;8.63;2.00;;;18.90;99.90;;;;;;5059218;28;20037;-79
2022/06/08 01:37:22;;;;;;;6.22;1.63;;;18.60;99.90;;;;;;5074675;28;20038;-79
2022/06/08 01:40:30;;;;;;;5.75;2.88;;;18.60;99.90;;;;;;5062725;28;20087;-78
2022/06/08 01:43:39;;;;;;;5.85;1.60;;;18.60;99.90;;;;;;5060292;28;20041;-79
2022/06/08 01:46:07;;;;;;;4.78;1.67;;;18.50;99.90;;;;;;4995901;28;20077;-79
2022/06/08 01:49:10;;;;;;;8.73;2.63;;;18.90;99.90;;;;;;5009858;28;20054;-78
2022/06/08 01:51:51;;;;;;;;;;;18.50;99.90;;;;;;5015706;28;20671;-78
2022/06/08 01:54:53;;;;;;;6.68;2.08;;;18.50;99.90;;;;;;5043916;28;19927;-77
2022/06/08 01:58:07;;;;;;;8.48;2.15;;;18.40;99.90;;;;;;5048802;28;20041;-77
2022/06/08 02:00:59;;;;;;;7.22;2.25;;;18.50;99.90;;;;;;5078362;28;20047;-78
2022/06/08 02:04:03;;;;;;;6.53;3.08;;;17.90;99.90;;;;;;5062599;28;20128;-77
2022/06/08 02:06:55;;;;;;;7.72;2.00;;;18.40;99.90;;;;;;5048684;28;20045;-77
2022/06/08 02:09:56;;;;;;;;;;;18.40;99.90;;;;;;5048549;28;20145;-78
2022/06/08 02:12:25;;;;;;;7.38;1.85;;;18.40;99.90;;;;;;4967636;28;20522;-77
2022/06/08 02:15:05;;;;;;;9.95;1.98;;;18.40;99.90;;;;;;5063188;28;20041;-78
2022/06/08 02:17:45;;;;;;;9.25;2.70;;;18.30;99.90;;;;;;5066038;28;20051;-78
2022/06/08 02:20:35;;;;;;;10.13;2.53;;;18.30;99.90;;;;;;5080595;28;20588;-78
2022/06/08 02:23:41;;;;;;;7.65;1.77;;;18.40;99.90;;;;;;5078165;28;20051;-78
2022/06/08 02:26:49;;;;;;;5.45;1.70;;;18.10;99.90;;;;;;5046498;28;20045;-78
2022/06/08 02:29:45;;;;;;;6.00;2.22;;;18.20;99.90;;;;;;5058230;28;20075;-78
2022/06/08 02:35:14;;;;;;;4.65;2.55;;;18.30;99.90;;;;;;5064793;28;20041;-77
2022/06/08 02:37:58;;;;;;;8.93;3.13;;;18.30;99.90;;;;;;5048164;28;20056;-77
2022/06/08 02:40:31;;;;;;;5.43;1.70;;;18.20;99.90;;;;;;5079381;28;20048;-77
2022/06/08 02:43:47;;;;;;;5.32;1.80;;;18.20;99.90;;;;;;5079526;28;20052;-78
2022/06/08 02:46:52;;;;;;;6.05;2.70;;;18.20;99.90;;;;;;5059189;28;20471;-77
2022/06/08 02:49:21;;;;;;;7.05;1.70;;;18.20;99.90;;;;;;5041382;28;20156;-78
2022/06/08 02:51:51;;;;;;;6.20;2.58;;;17.70;99.90;;;;;;5063294;28;20053;-78
2022/06/08 02:54:32;;;;;;;6.63;2.25;;;18.20;99.90;;;;;;5060745;28;20052;-78
2022/06/08 02:57:09;;;;;;;3.75;1.73;;;18.40;99.90;;;;;;5046421;28;20131;-78
2022/06/08 02:59:37;;;;;;;9.98;2.42;;;18.20;99.90;;;;;;5060541;28;20051;-78
2022/06/08 03:02:49;;;;;;;9.38;2.38;;;18.20;99.90;;;;;;5076634;28;20047;-78
2022/06/08 03:06:04;;;;;;;6.45;1.60;;;18.20;99.90;;;;;;5029689;28;20049;-78
2022/06/08 03:08:42;;;;;;;5.35;2.47;;;18.10;99.90;;;;;;5060830;28;20049;-78
2022/06/08 03:11:14;;;;;;;4.40;2.28;;;18.00;99.90;;;;;;5056826;28;20701;-77
2022/06/08 03:13:48;;;;;;;5.22;2.53;;;18.30;99.90;;;;;;5060157;28;20131;-78
2022/06/08 03:17:00;;;;;;;3.72;2.25;;;17.90;99.90;;;;;;5060695;28;20196;-77
2022/06/08 03:19:36;;;;;;;4.25;1.48;;;17.80;99.90;;;;;;5058331;28;20092;-78
2022/06/08 03:22:09;;;;;;;5.38;2.58;;;17.80;99.90;;;;;;5060181;28;20059;-77
2022/06/08 03:24:43;;;;;;;3.25;1.70;;;17.80;99.90;;;;;;5062814;28;20052;-77
2022/06/08 03:27:25;;;;;;;3.30;2.00;;;17.80;99.90;;;;;;5042837;28;20045;-77
2022/06/08 03:29:57;;;;;;;;;;;17.80;99.90;;;;;;5060744;28;20139;-77
2022/06/08 03:32:34;;;;;;;3.97;1.92;;;17.80;99.90;;;;;;5045848;28;19951;-77
2022/06/08 03:35:14;;;;;;;9.13;2.42;;;17.70;99.90;;;;;;5046177;28;20613;-77
2022/06/08 03:38:01;;;;;;;4.47;2.60;;;18.00;99.90;;;;;;5064823;28;20040;-77
2022/06/08 03:40:29;;;;;;;4.13;1.52;;;17.70;99.90;;;;;;5080568;28;20046;-77
2022/06/08 03:43:15;;;;;;;3.47;1.67;;;17.80;99.90;;;;;;5045369;28;20501;-78
2022/06/08 03:45:55;;;;;;;5.70;1.67;;;17.70;99.90;;;;;;5060904;28;20069;-78
2022/06/08 03:48:42;;;;;;;7.47;2.00;;;17.70;99.90;;;;;;5060505;28;20434;-78
2022/06/08 03:51:26;;;;;;;3.33;1.50;;;17.70;99.90;;;;;;5061160;28;20048;-77
2022/06/08 03:54:26;;;;;;;5.65;1.83;;;17.60;99.90;;;;;;5059566;28;20037;-78
2022/06/08 03:57:07;;;;;;;8.38;2.13;;;17.60;99.90;;;;;;5062048;28;20068;-77
2022/06/08 04:00:03;;;;;;;6.07;1.80;;;17.60;99.90;;;;;;5061796;28;20048;-77
2022/06/08 04:02:37;;;;;;;4.07;2.38;;;17.60;99.90;;;;;;5060098;28;20050;-77
2022/06/08 04:05:41;;;;;;;4.80;2.47;;;17.50;99.90;;;;;;5059635;28;21493;-77
2022/06/08 04:08:18;;;;;;;3.55;1.50;;;17.50;99.90;;;;;;5057469;28;20046;-77
2022/06/08 04:11:00;;;;;;;2.95;1.50;;;17.50;99.90;;;;;;5062973;28;20076;-77
2022/06/08 04:16:55;;;;;;;5.68;1.70;;;17.70;99.90;;;;;;5063112;28;20051;-77
2022/06/08 04:19:47;;;;;;;5.05;1.95;;;17.80;99.90;;;;;;5059280;28;20588;-77
2022/06/08 04:22:35;;;;;;;1.83;1.13;;;17.50;99.90;;;;;;5060380;28;20048;-77
2022/06/08 04:25:08;;;;;;;3.95;1.63;;;17.50;99.90;;;;;;5044665;28;20131;-77
2022/06/08 04:27:42;;;;;;;2.75;1.35;;;17.90;99.90;;;;;;5064704;28;20047;-77
2022/06/08 04:30:20;;;;;;;4.30;1.70;;;17.50;99.90;;;;;;5060757;28;20556;-77
2022/06/08 04:33:02;;;;;;;3.13;1.95;;;17.40;99.90;;;;;;5060261;28;20168;-77
2022/06/08 04:35:51;;;;;;;3.65;1.80;;;17.40;99.90;;;;;;5060315;28;20063;-77
2022/06/08 04:38:24;;;;;;;4.72;1.58;;;17.50;99.90;;;;;;5062099;28;20134;-77
2022/06/08 04:41:04;;;;;;;2.88;1.30;;;17.70;99.90;;;;;;5079439;28;20045;-77
2022/06/08 04:43:42;;;;;;;2.13;1.23;;;17.50;99.90;;;;;;5060641;28;20048;-77
2022/06/08 04:46:15;;;;;;;2.28;1.00;;;17.50;99.90;;;;;;5058367;28;20048;-77
2022/06/08 04:49:19;;;;;;;1.88;1.20;;;17.50;99.90;;;;;;5059270;28;20622;-77
2022/06/08 04:51:50;;;;;;;1.55;0.98;;;17.70;99.90;;;;;;5059473;28;20082;-77
2022/06/08 04:54:32;;;;;;;2.42;1.25;;;17.50;99.90;;;;;;5058311;28;20087;-77
2022/06/08 04:57:04;;;;;;;;;;;17.60;99.90;;;;;;5060339;28;20067;-77
2022/06/08 04:59:37;;;;;;;2.10;0.90;;;17.60;99.90;;;;;;5044526;28;19927;-77
2022/06/08 05:05:46;;;;;;;4.40;1.40;;;17.60;99.90;;;;;;5042854;28;20518;-78
2022/06/08 05:08:18;;;;;;;2.92;1.15;;;17.60;99.90;;;;;;5062229;28;20075;-76
2022/06/08 05:11:05;;;;;;;;;;;;;;;;;;;;;
2022/06/08 05:13:36;;;;;;;1.50;1.20;;;17.50;99.90;;;;;;5057786;28;38774;-79
2022/06/08 05:16:11;;;;;;;1.63;0.80;;;17.40;99.90;;;;;;5066371;28;20056;-78
2022/06/08 05:18:54;;;;;;;1.85;1.48;;;17.60;99.90;;;;;;5083145;28;20045;-76
2022/06/08 05:21:47;;;;;;;1.70;1.20;;;17.50;99.90;;;;;;5061374;28;20526;-78
2022/06/08 05:24:34;;;;;;;1.10;0.80;;;17.50;99.90;;;;;;5079306;28;20053;-80
2022/06/08 05:27:26;;;;;;;2.28;1.67;;;17.50;99.90;;;;;;5080035;28;20056;-79
2022/06/08 05:30:14;;;;;;;1.52;1.08;;;17.60;99.90;;;;;;5061211;28;20059;-79
2022/06/08 05:32:47;;;;;;;3.30;1.10;;;17.50;99.90;;;;;;5051749;28;20071;-78
2022/06/08 05:35:15;;;;;;;0.80;0.73;;;16.80;99.90;;;;;;5069272;28;20530;-79
2022/06/08 05:38:05;;;;;;;3.88;1.00;;;17.40;99.90;;;;;;5066322;28;20458;-78
2022/06/08 05:40:40;;;;;;;0.90;0.57;;;17.40;99.90;;;;;;5052981;28;20522;-79
2022/06/08 05:43:17;;;;;;;10.57;4.60;;;17.50;99.90;;;;;;5060357;28;20044;-79
2022/06/08 05:45:45;;;;;;;7.10;3.20;;;17.50;99.90;;;;;;5066121;28;20083;-81
2022/06/08 05:48:17;;;;;;;2.60;1.35;;;17.50;99.90;;;;;;5064543;28;20064;-79
2022/06/08 05:50:59;;;;;;;3.95;1.48;;;17.70;99.90;;;;;;5051940;28;20080;-79
2022/06/08 05:53:47;;;;;;;4.30;1.65;;;17.40;99.90;;;;;;5067953;28;20041;-82
2022/06/08 05:56:25;;;;;;;3.03;1.27;;;17.50;99.90;;;;;;5086745;28;20582;-79
2022/06/08 05:58:57;;;;;;;2.67;0.93;;;17.50;99.90;;;;;;5067091;28;20041;-83
2022/06/08 06:01:37;;;;;;;0.82;0.80;;;17.50;99.90;;;;;;5064345;28;20060;-79
2022/06/08 06:04:37;;;;;;;1.20;0.73;;;17.50;99.90;;;;;;5066584;28;20422;-78
2022/06/08 06:07:12;;;;;;;0.77;0.70;;;17.60;99.90;;;;;;5066020;28;20457;-78
2022/06/08 06:09:44;;;;;;;3.22;0.70;;;17.50;99.90;;;;;;5067195;28;20767;-77
2022/06/08 06:12:22;;;;;;;1.13;0.70;;;17.60;99.90;;;;;;5062289;28;20146;-78
2022/06/08 06:15:01;;;;;;;;;;;;;;;;;;;;;
2022/06/08 06:18:00;;;;;;;0.65;0.52;;;17.60;99.90;;;;;;5065739;28;43331;-78
2022/06/08 06:20:37;;;;;;;0.98;0.55;;;17.60;99.90;;;;;;5056809;28;20048;-78
2022/06/08 06:23:10;;;;;;;0.60;0.60;;;17.70;99.90;;;;;;5065181;28;20095;-79
2022/06/08 06:26:08;;;;;;;2.05;0.80;;;17.50;99.90;;;;;;5063479;28;20046;-79
2022/06/08 06:28:55;;;;;;;1.63;0.60;;;17.90;99.90;;;;;;5063325;28;20080;-79
2022/06/08 06:32:10;;;;;;;2.05;0.75;;;17.70;99.90;;;;;;5063156;28;20047;-79
2022/06/08 06:34:56;;;;;;;;;;;;;;;;;;;;;
2022/06/08 06:37:45;;;;;;;0.95;0.80;;;17.80;99.90;;;;;;5065534;28;41870;-78
2022/06/08 06:40:24;;;;;;;2.40;0.70;;;17.90;99.90;;;;;;5064591;28;20131;-78
2022/06/08 06:42:56;;;;;;;1.02;0.63;;;18.00;99.90;;;;;;5064373;28;20052;-78
2022/06/08 06:45:31;;;;;;;1.20;0.70;;;17.90;99.90;;;;;;5058281;28;20049;-76
2022/06/08 06:48:06;;;;;;;1.50;0.70;;;17.90;99.90;;;;;;5074422;28;20083;-77
2022/06/08 06:50:32;;;;;;;0.82;0.60;;;17.90;99.90;;;;;;5058439;28;20092;-77
2022/06/08 06:53:06;;;;;;;1.52;0.70;;;17.90;99.90;;;;;;5066633;28;20083;-77
2022/06/08 06:55:34;;;;;;;0.80;0.47;;;18.00;99.90;;;;;;5061056;28;20573;-77
2022/06/08 06:58:18;;;;;;;0.77;0.57;;;18.20;99.90;;;;;;5060635;28;20076;-77
2022/06/08 07:00:51;;;;;;;0.82;0.60;;;18.20;99.90;;;;;;5058469;28;20117;-77
2022/06/08 07:03:26;;;;;;;1.13;0.60;;;18.20;99.90;;;;;;5059969;28;20557;-77
2022/06/08 07:05:57;;;;;;;0.90;0.50;;;18.20;99.90;;;;;;5058075;28;20048;-77
2022/06/08 07:08:33;;;;;;;2.65;0.45;;;18.30;99.90;;;;;;5058378;28;20057;-77
2022/06/08 07:11:50;;;;;;;0.50;0.40;;;18.40;99.90;;;;;;5077961;28;20063;-77
2022/06/08 07:14:23;;;;;;;1.45;0.63;;;18.40;99.90;;;;;;5064836;28;20045;-77
2022/06/08 07:17:07;;;;;;;1.65;0.65;;;18.50;99.90;;;;;;5047622;28;20045;-77
2022/06/08 07:19:39;;;;;;;0.40;0.40;;;18.00;99.90;;;;;;5062157;28;20041;-77
2022/06/08 07:22:10;;;;;;;;;;;18.30;99.90;;;;;;5062495;28;20056;-77
2022/06/08 07:24:58;;;;;;;0.30;0.30;;;18.20;99.90;;;;;;5062692;28;20006;-77
2022/06/08 07:27:29;;;;;;;0.60;0.40;;;18.20;99.90;;;;;;5062206;28;20045;-76
2022/06/08 07:30:08;;;;;;;2.17;0.50;;;18.40;99.90;;;;;;5063745;28;20044;-76
2022/06/08 07:32:40;;;;;;;0.80;0.60;;;18.50;99.90;;;;;;5049154;28;20279;-76
2022/06/08 07:35:12;;;;;;;0.60;0.60;;;18.60;99.90;;;;;;5065103;28;20437;-76
2022/06/08 07:37:45;;;;;;;1.20;0.50;;;18.60;99.90;;;;;;5061458;28;20080;-77
2022/06/08 07:40:15;;;;;;;0.90;0.55;;;18.70;99.90;;;;;;5074859;28;20060;-76
2022/06/08 07:42:44;;;;;;;1.23;0.63;;;18.60;99.90;;;;;;5060133;28;20036;-77
2022/06/08 07:45:30;;;;;;;0.57;0.50;;;19.00;99.90;;;;;;5061678;28;20079;-77
2022/06/08 07:50:49;;;;;;;0.47;0.32;;;18.90;99.90;;;;;;5064731;28;20044;-77
2022/06/08 07:53:43;;;;;;;0.40;0.40;;;19.40;99.90;;;;;;5062375;28;20052;-77
2022/06/08 07:56:17;;;;;;;2.35;0.52;;;19.50;99.90;;;;;;5046921;28;20523;-76
2022/06/08 07:58:54;;;;;;;0.50;0.50;;;19.60;99.90;;;;;;5064756;28;20584;-77
2022/06/08 08:01:22;;;;;;;1.00;0.60;;;19.70;99.90;;;;;;5063618;28;20041;-77
2022/06/08 08:03:48;;;;;;;0.30;0.30;;;19.70;99.90;;;;;;5063960;28;20047;-77
2022/06/08 08:06:14;;;;;;;0.50;0.50;;;19.80;99.90;;;;;;5061782;28;20041;-77
2022/06/08 08:08:40;;;;;;;7.70;1.00;;;19.90;99.90;;;;;;5064092;28;20049;-77
2022/06/08 08:11:06;;;;;;;5.25;1.17;;;19.90;99.90;;;;;;5061903;28;20529;-77
2022/06/08 08:13:33;;;;;;;1.77;0.73;;;19.80;99.90;;;;;;5061860;28;20899;-76
2022/06/08 08:15:59;;;;;;;2.65;1.00;;;19.90;99.90;;;;;;5059766;28;20040;-77
2022/06/08 08:18:25;;;;;;;1.90;0.50;;;19.90;99.90;;;;;;5079068;28;20052;-77
2022/06/08 08:20:50;;;;;;;0.35;0.35;;;20.00;99.90;;;;;;5059421;28;20506;-77
2022/06/08 08:23:19;;;;;;;0.45;0.45;;;20.00;99.90;;;;;;5058022;28;20067;-78
2022/06/08 08:25:45;;;;;;;0.47;0.47;;;20.00;99.90;;;;;;5057013;28;20044;-78
2022/06/08 08:28:11;;;;;;;3.15;1.42;;;20.00;99.90;;;;;;5061085;28;20048;-78
2022/06/08 08:30:37;;;;;;;0.68;0.52;;;20.00;99.90;;;;;;5061684;28;20045;-78
2022/06/08 08:33:06;;;;;;;1.25;0.80;;;20.10;99.90;;;;;;5044327;28;20175;-78
2022/06/08 08:35:31;;;;;;;0.57;0.50;;;20.10;99.90;;;;;;5060650;28;20044;-78
2022/06/08 08:38:00;;;;;;;1.02;0.50;;;20.20;99.90;;;;;;5058852;28;20047;-78
2022/06/08 08:40:52;;;;;;;1.02;0.40;;;20.40;99.90;;;;;;5077015;28;20044;-78
2022/06/08 08:43:24;;;;;;;0.95;0.60;;;20.50;99.90;;;;;;5044364;28;20130;-78
2022/06/08 08:46:09;;;;;;;0.50;0.40;;;20.60;99.90;;;;;;5058507;28;20044;-78
2022/06/08 08:49:12;;;;;;;0.30;0.30;;;20.70;99.90;;;;;;5075949;28;20048;-76
2022/06/08 08:51:59;;;;;;;1.17;0.75;;;20.60;99.90;;;;;;5055308;28;20053;-76
2022/06/08 08:54:36;;;;;;;2.05;0.80;;;20.50;99.90;;;;;;5058929;28;20040;-77
2022/06/08 08:57:19;;;;;;;0.50;0.50;;;20.40;99.90;;;;;;5059378;28;20044;-76
2022/06/08 08:59:48;;;;;;;1.85;0.50;;;20.40;99.90;;;;;;5061252;28;20071;-75
2022/06/08 09:05:21;;;;;;;0.63;0.40;;;20.50;99.90;;;;;;5061615;28;20060;-78
2022/06/08 09:07:47;;;;;;;1.05;0.57;;;20.60;99.90;;;;;;5062906;28;20040;-78
2022/06/08 09:10:23;;;;;;;0.90;0.40;;;20.70;99.90;;;;;;5067671;28;20091;-77
2022/06/08 09:12:50;;;;;;;1.45;0.57;;;20.80;99.90;;;;;;5080252;28;20085;-78
2022/06/08 09:15:37;;;;;;;0.38;0.32;;;20.80;99.90;;;;;;5066797;28;20036;-78
2022/06/08 09:18:04;;;;;;;0.88;0.50;;;20.70;99.90;;;;;;5080989;28;20044;-77
2022/06/08 09:20:38;;;;;;;0.68;0.43;;;20.60;99.90;;;;;;5067076;28;20041;-78
2022/06/08 09:23:36;;;;;;;0.30;0.30;;;20.60;99.90;;;;;;5067935;28;20134;-78
2022/06/08 09:26:14;;;;;;;0.85;0.50;;;20.60;99.90;;;;;;5050405;28;20041;-75
2022/06/08 09:28:43;;;;;;;0.25;0.20;;;20.60;99.90;;;;;;5066284;28;20526;-75
2022/06/08 09:31:35;;;;;;;0.70;0.40;;;20.70;99.90;;;;;;5078290;28;20045;-76
2022/06/08 09:34:22;;;;;;;0.85;0.55;;;20.80;99.90;;;;;;5055384;28;20305;-76
2022/06/08 09:37:26;;;;;;;;;;;;;;;;;;;;;
2022/06/08 09:40:01;;;;;;;1.80;0.52;;;21.20;99.90;;;;;;5064973;28;39532;-77
2022/06/08 09:43:09;;;;;;;1.75;0.60;;;21.30;99.90;;;;;;5062288;28;20040;-77
2022/06/08 09:51:25;;;;;;;0.35;0.35;;;21.30;99.90;;;;;;5000702;28;20046;-77
2022/06/08 09:52:05;;;;;;;0.30;0.30;;;21.30;99.90;;;;;;5063188;28;21042;-76
2022/06/08 09:55:08;;;;;;;1.95;0.77;;;21.30;99.90;;;;;;5063254;28;20523;-76
2022/06/08 09:57:45;;;;;;;0.22;0.22;;;21.40;99.90;;;;;;5062984;28;20045;-77
2022/06/08 10:00:27;;;;;;;0.55;0.45;;;21.50;99.90;;;;;;5064038;28;20036;-76
2022/06/08 10:03:15;;;;;;;0.20;0.20;;;21.50;99.90;;;;;;5062978;28;20576;-76
2022/06/08 10:06:01;;;;;;;2.42;0.70;;;21.60;99.90;;;;;;5075745;28;20060;-75
2022/06/08 10:09:08;;;;;;;1.65;0.40;;;21.50;99.90;;;;;;5044270;28;20056;-75
2022/06/08 10:11:52;;;;;;;0.57;0.30;;;21.60;99.90;;;;;;5060650;28;20079;-76
2022/06/08 10:14:30;;;;;;;0.65;0.52;;;21.30;99.90;;;;;;5046583;28;20131;-76
2022/06/08 10:17:17;;;;;;;0.40;0.40;;;21.70;99.90;;;;;;5046887;28;20049;-75
2022/06/08 10:20:17;;;;;;;0.52;0.50;;;21.80;99.90;;;;;;5078175;28;20123;-76
2022/06/08 10:22:58;;;;;;;0.32;0.28;;;21.80;99.90;;;;;;5059946;28;20053;-75
2022/06/08 10:25:52;;;;;;;1.10;0.68;;;21.90;99.90;;;;;;5063449;28;20159;-75
2022/06/08 10:28:48;;;;;;;1.17;0.70;;;21.90;99.90;;;;;;5079262;28;21214;-76
2022/06/08 10:31:44;;;;;;;1.15;0.75;;;21.60;99.90;;;;;;5062269;28;20140;-75
2022/06/08 10:37:50;;;;;;;5.45;0.95;;;21.00;99.90;;;;;;5053382;28;20057;-81
2022/06/08 10:40:29;;;;;;;1.98;1.00;;;19.80;99.90;;;;;;5059550;28;20053;-80
2022/06/08 10:43:42;;;;;;;2.42;1.02;;;19.40;99.90;;;;;;5059541;28;20045;-79
2022/06/08 10:46:54;;;;;;;4.68;1.00;;;19.60;99.90;;;;;;5014497;28;20249;-82
2022/06/08 10:50:09;;;;;;;1.42;0.88;;;19.60;99.90;;;;;;5055676;28;20063;-81
2022/06/08 10:52:50;;;;;;;1.75;0.82;;;19.80;99.90;;;;;;5049536;28;20088;-81
2022/06/08 10:55:20;;;;;;;2.17;0.90;;;19.90;99.90;;;;;;5048027;28;20534;-81
2022/06/08 10:57:57;;;;;;;1.55;0.80;;;19.70;99.90;;;;;;5062548;28;20658;-80
2022/06/08 11:00:57;;;;;;;3.67;1.10;;;19.90;99.90;;;;;;5061942;28;20041;-80
2022/06/08 11:03:49;;;;;;;1.20;0.90;;;20.10;99.90;;;;;;5078444;28;20931;-79
2022/06/08 11:07:03;;;;;;;2.05;1.00;;;20.20;99.90;;;;;;5061795;28;20538;-77
2022/06/08 11:10:03;;;;;;;0.57;0.57;;;20.40;99.90;;;;;;4995291;28;20050;-84
2022/06/08 11:13:15;;;;;;;;;;;;;;;;;;;;;
2022/06/08 11:16:26;;;;;;;1.23;0.82;;;20.50;99.90;;;;;;5057965;28;43916;-85
2022/06/08 11:19:26;;;;;;;2.50;1.10;;;20.40;99.90;;;;;;5079327;28;20049;-85
2022/06/08 11:22:34;;;;;;;2.22;1.10;;;20.30;99.90;;;;;;5048982;28;20849;-86
2022/06/08 11:25:12;;;;;;;1.80;1.02;;;20.20;99.90;;;;;;5062172;28;20059;-85
2022/06/08 11:28:25;;;;;;;3.38;1.20;;;20.00;99.90;;;;;;5045850;28;20620;-85
2022/06/08 11:31:12;;;;;;;2.17;0.98;;;20.30;99.90;;;;;;5077490;28;20044;-85
2022/06/08 11:34:31;;;;;;;2.00;1.20;;;20.20;99.90;;;;;;5060482;28;20063;-86
2022/06/08 11:41:03;;;;;;;0.85;0.77;;;20.10;99.90;;;;;;5061928;28;20056;-84
2022/06/08 11:43:58;;;;;;;3.08;2.25;;;20.10;99.90;;;;;;5036693;28;20580;-84
2022/06/08 11:46:50;;;;;;;2.25;0.98;;;20.10;99.90;;;;;;5060109;28;20524;-84
2022/06/08 11:49:37;;;;;;;0.85;0.70;;;20.20;99.90;;;;;;5063830;28;20049;-84
2022/06/08 11:52:53;;;;;;;2.58;1.20;;;20.30;99.90;;;;;;5058772;28;20626;-85
2022/06/08 11:55:55;;;;;;;2.58;0.93;;;20.10;99.90;;;;;;5064122;28;20072;-84
2022/06/08 11:58:38;;;;;;;4.28;1.02;;;20.10;99.90;;;;;;5029911;28;20079;-85
2022/06/08 12:01:22;;;;;;;1.88;1.00;;;19.60;99.90;;;;;;5063221;28;20045;-83
2022/06/08 12:04:35;;;;;;;2.10;1.13;;;19.50;99.90;;;;;;5060611;28;20530;-84
2022/06/08 12:07:30;;;;;;;1.13;0.73;;;19.40;99.90;;;;;;5055916;28;20771;-85
2022/06/08 12:10:05;;;;;;;1.52;0.98;;;19.30;99.90;;;;;;5064880;28;20033;-83
2022/06/08 12:12:41;;;;;;;2.08;1.05;;;19.30;99.90;;;;;;5059406;28;20067;-83
2022/06/08 12:15:50;;;;;;;;;;;;;;;;;;;;;
2022/06/08 12:18:25;;;;;;;1.73;1.60;;;19.20;99.90;;;;;;5063493;28;42685;-82
2022/06/08 12:21:29;;;;;;;1.50;0.70;;;19.30;99.90;;;;;;5080242;28;20132;-80
2022/06/08 12:27:42;;;;;;;1.02;0.75;;;19.50;99.90;;;;;;5055829;28;20136;-80
2022/06/08 12:30:58;;;;;;;1.13;0.88;;;19.90;99.90;;;;;;5064308;28;20064;-79
2022/06/08 12:33:52;;;;;;;3.00;1.10;;;20.20;99.90;;;;;;5062468;28;20123;-79
2022/06/08 12:36:36;;;;;;;1.20;1.10;;;20.20;99.90;;;;;;5061022;28;20056;-81
2022/06/08 12:39:32;;;;;;;1.25;0.85;;;20.60;99.90;;;;;;5059826;28;20049;-80
2022/06/08 12:42:10;;;;;;;1.23;0.90;;;20.70;99.90;;;;;;5059050;28;20079;-80
2022/06/08 12:44:55;;;;;;;1.17;0.80;;;20.80;99.90;;;;;;5077508;28;20053;-81
2022/06/08 12:47:50;;;;;;;2.28;0.95;;;20.60;99.90;;;;;;5065776;28;20131;-83
2022/06/08 12:50:41;;;;;;;0.85;0.65;;;20.70;99.90;;;;;;5064848;28;21227;-82
2022/06/08 12:53:39;;;;;;;1.85;0.90;;;20.60;99.90;;;;;;5080115;28;20053;-81
2022/06/08 12:56:17;;;;;;;2.92;0.82;;;20.30;99.90;;;;;;5032469;28;20592;-80
2022/06/08 12:58:52;;;;;;;0.90;0.55;;;20.40;99.90;;;;;;5063623;28;20041;-83
2022/06/08 13:01:32;;;;;;;3.13;1.35;;;20.50;99.90;;;;;;5065712;28;20522;-80
2022/06/08 13:04:06;;;;;;;2.05;1.10;;;20.40;99.90;;;;;;5064629;28;20060;-80
2022/06/08 13:06:56;;;;;;;3.20;1.17;;;20.60;99.90;;;;;;5065306;28;20087;-80
2022/06/08 13:09:29;;;;;;;2.33;1.10;;;20.70;99.90;;;;;;5048067;28;20816;-80
2022/06/08 13:12:37;;;;;;;4.53;2.15;;;21.00;99.90;;;;;;5081592;28;20037;-80
2022/06/08 13:15:19;;;;;;;4.20;1.42;;;21.10;99.90;;;;;;5048805;28;20048;-80
2022/06/08 13:17:53;;;;;;;3.72;1.00;;;21.20;99.90;;;;;;5065996;28;20068;-80
2022/06/08 13:20:42;;;;;;;1.85;0.95;;;21.50;99.90;;;;;;5048212;28;20477;-80
2022/06/08 13:23:19;;;;;;;1.83;0.85;;;21.60;99.90;;;;;;5048576;28;20041;-80
2022/06/08 13:26:01;;;;;;;2.25;1.02;;;21.70;99.90;;;;;;5065753;28;20049;-80
2022/06/08 13:28:37;;;;;;;5.05;1.70;;;21.60;99.90;;;;;;5080036;28;20245;-80
2022/06/08 13:31:14;;;;;;;2.35;1.10;;;21.60;99.90;;;;;;5063001;28;20051;-80
2022/06/08 13:34:07;;;;;;;4.50;1.23;;;21.40;99.90;;;;;;5064291;28;20880;-80
2022/06/08 13:36:49;;;;;;;;;;;;;;;;;;;;;
2022/06/08 13:39:47;;;;;;;12.35;1.80;;;21.60;99.90;;;;;;5064580;28;40388;-80
2022/06/08 13:42:22;;;;;;;1.70;0.95;;;21.60;99.90;;;;;;5079709;28;20063;-80
2022/06/08 13:45:20;;;;;;;3.28;1.02;;;21.80;99.90;;;;;;5063355;28;20048;-80
2022/06/08 13:48:04;;;;;;;1.80;1.00;;;21.90;99.90;;;;;;5057528;28;20176;-81
2022/06/08 13:51:06;;;;;;;2.72;1.05;;;22.00;99.90;;;;;;5063338;28;21057;-80
2022/06/08 13:53:49;;;;;;;1.38;0.88;;;21.70;99.90;;;;;;5077783;28;20044;-79
2022/06/08 13:56:46;;;;;;;4.78;1.08;;;21.30;99.90;;;;;;5051710;28;20755;-79
2022/06/08 13:59:39;;;;;;;2.28;1.00;;;21.00;99.90;;;;;;5062887;28;20953;-80
2022/06/08 14:02:28;;;;;;;1.98;0.95;;;20.80;99.90;;;;;;5089260;28;20048;-79
2022/06/08 14:05:02;;;;;;;3.63;1.05;;;20.70;99.90;;;;;;5073927;28;20040;-79
2022/06/08 14:13:37;;;;;;;3.33;1.38;;;20.60;99.90;;;;;;5072449;28;20167;-79
2022/06/08 14:16:09;;;;;;;2.92;1.10;;;20.50;99.90;;;;;;5071248;28;20045;-79
2022/06/08 14:19:41;;;;;;;2.85;0.98;;;20.50;99.90;;;;;;5071568;28;20079;-79
2022/06/08 14:22:21;;;;;;;5.50;1.10;;;20.50;99.90;;;;;;5019951;28;20054;-80
2022/06/08 14:25:04;;;;;;;;;;;;;;;;;;;;;
2022/06/08 14:27:56;;;;;;;16.42;1.45;;;20.70;99.90;;;;;;5066857;28;42090;-79
2022/06/08 14:30:30;;;;;;;2.40;1.38;;;21.10;99.90;;;;;;5066274;28;20167;-80
2022/06/08 14:33:13;;;;;;;;;;;;;;;;;;;;;
2022/06/08 14:36:08;;;;;;;7.35;1.30;;;21.20;99.90;;;;;;5066740;28;39765;-79
2022/06/08 14:38:40;;;;;;;2.80;1.35;;;21.30;99.90;;;;;;5066374;28;20041;-79
2022/06/08 14:41:12;;;;;;;3.97;1.05;;;21.40;99.90;;;;;;5066017;28;20056;-79
2022/06/08 14:43:38;;;;;;;;;;;21.50;99.90;;;;;;5067289;28;20091;-79
2022/06/08 14:46:16;;;;;;;3.55;1.90;;;21.60;99.90;;;;;;5068568;28;19921;-79
2022/06/08 14:49:18;;;;;;;3.95;1.10;;;21.50;99.90;;;;;;5066492;28;20567;-79
2022/06/08 14:52:16;;;;;;;3.92;1.10;;;21.50;99.90;;;;;;5065318;28;20065;-79
2022/06/08 14:56:23;;;;;;;1.85;1.20;;;21.60;99.90;;;;;;5066310;28;20532;-79
2022/06/08 14:58:14;;;;;;;;;;;;;;;;;;;;;
2022/06/08 15:00:56;;;;;;;4.05;1.20;;;21.40;99.90;;;;;;5067311;28;39743;-80
2022/06/08 15:03:31;;;;;;;6.20;1.60;;;21.40;99.90;;;;;;5065521;28;20526;-79
2022/06/08 15:06:06;;;;;;;9.32;2.15;;;20.70;99.90;;;;;;5064801;28;20191;-79